Portada
METAR-TAF:

METAR-TAF

Aeropuertos :

Aeropuerto Ejecutivo Gatineau-Ottawa

Gatineau, Quebec, Canadá

latitud: 45-31N, longitud: 075-34W, altitud: 64 m

Observación

El informe se hizo hace 8 horas y 55 minutos, a las 02:00 UTC
Viento 6 kt del noroeste
Temperatura -12°C
Humedad 61%
Presión 1027 hPa
Visibilidad: 24.1 km
Cielo despejado

METAR: CYND 190200Z 32006KT 15SM SKC M12/M18 A3033 RMK LAST STFD OBS/NEXT 191200 UTC SLP277

Hora: 05:55 (10:55 UTC)

Pronóstico

El informe se hizo hace 11 horas y 14 minutos, a las 23:41 UTC
Pronóstico válido del 19 a las 00 UTC al 19 a las 02 UTC
Viento 7 kt del norte-noroeste
Visibilidad: 10 km
Escasas nubes a una altura de 22000 ft
Evolucionando progresivamente
del 19 a las 00 UTC al 19 a las 02 UTC
Viento 3 kt con dirección variable

TAF: CYND 182341Z 1900/1902 33007KT P6SM FEW220 BECMG 1900/1902 VRB03KT RMK NXT FCST WILL BE ISSUED AT 191345Z

Observaciones y pronósticos meteorológicos de más de 4000 aeropuertos (mensajes METAR y TAF).

Los puntos amarillos y rojos representan las estaciones disponibles.

Ponga el ratón en el punto deseado para ver el nombre de la estación.

Haga clic para ver las observaciones y los pronósticos meteorológicos.

Para cambiar el mapa : haga clic en los botones verdes con una cruz de color negro para hacer un zoom, en el botón verde con un guión para alejar o en las flechas verdes para mapas adyacentes.


METAR-TAF: